Time;durP1;ratioP1;P1;durP2;ratioP2;P2;SDS_P1;SDS_P2;PMS_P1;PMS_P2;Temp;Humidity;BMP_temperature;BMP_pressure;BME280_temperature;BME280_humidity;BME280_pressure;Samples;Min_cycle;Max_cycle;Signal;HPM_P1;HPM_P2
2022/07/03 00:01:26;;;;;;;;;;;;;;;21.71;68.35;95326.53;5057071;28;1163;-70
2022/07/03 00:03:53;;;;;;;;;;;;;;;21.69;68.20;95326.97;5057663;28;1162;-70
2022/07/03 00:06:20;;;;;;;;;;;;;;;21.67;68.34;95323.75;5057303;28;1151;-70
2022/07/03 00:08:46;;;;;;;;;;;;;;;21.64;68.25;95333.00;5057581;28;1113;-70
2022/07/03 00:11:13;;;;;;;;;;;;;;;21.58;68.53;95338.31;5057911;28;906;-69
2022/07/03 00:13:41;;;;;;;;;;;;;;;21.55;69.02;95327.91;5057550;28;1027;-70
2022/07/03 00:16:07;;;;;;;;;;;;;;;21.56;68.98;95323.09;5056577;28;1984;-70
2022/07/03 00:18:34;;;;;;;;;;;;;;;21.57;69.08;95333.13;5057411;28;714;-70
2022/07/03 00:21:01;;;;;;;;;;;;;;;21.56;69.21;95325.91;5057922;28;1075;-69
2022/07/03 00:23:28;;;;;;;;;;;;;;;21.54;69.05;95325.53;5056718;28;1162;-70
2022/07/03 00:25:55;;;;;;;;;;;;;;;21.50;69.30;95331.19;5057223;28;1007;-70
2022/07/03 00:28:21;;;;;;;;;;;;;;;21.49;69.37;95335.19;5057172;28;1070;-69
2022/07/03 00:30:49;;;;;;;;;;;;;;;21.47;69.69;95329.22;5056813;28;1221;-70
2022/07/03 00:33:16;;;;;;;;;;;;;;;21.46;69.87;95336.03;5056565;28;1394;-70
2022/07/03 00:35:43;;;;;;;;;;;;;;;21.43;69.39;95331.25;5057241;28;1918;-69
2022/07/03 00:38:10;;;;;;;;;;;;;;;21.41;69.90;95316.84;5057120;28;1054;-70
2022/07/03 00:40:37;;;;;;;;;;;;;;;21.39;70.04;95314.47;5056977;28;1070;-70
2022/07/03 00:43:04;;;;;;;;;;;;;;;21.40;69.93;95320.88;5056989;28;1295;-70
2022/07/03 00:45:30;;;;;;;;;;;;;;;21.36;70.03;95308.91;5056306;28;1135;-70
2022/07/03 00:47:58;;;;;;;;;;;;;;;21.34;70.33;95309.28;5056929;28;999;-70
2022/07/03 00:50:26;;;;;;;;;;;;;;;21.34;70.38;95311.31;5057006;28;991;-70
2022/07/03 00:52:52;;;;;;;;;;;;;;;21.32;70.09;95311.69;5057154;28;951;-70
2022/07/03 00:55:19;;;;;;;;;;;;;;;21.30;70.45;95313.31;5055367;28;1980;-70
2022/07/03 00:57:46;;;;;;;;;;;;;;;21.27;70.21;95306.53;5056761;28;948;-70
2022/07/03 01:00:13;;;;;;;;;;;;;;;21.28;70.06;95301.72;5056605;28;1086;-70
2022/07/03 01:02:42;;;;;;;;;;;;;;;21.24;70.08;95296.16;5056836;28;920;-70
2022/07/03 01:05:12;;;;;;;;;;;;;;;21.22;70.29;95292.97;5056925;28;975;-70
2022/07/03 01:07:42;;;;;;;;;;;;;;;21.20;70.63;95289.78;5055803;28;1167;-70
2022/07/03 01:10:11;;;;;;;;;;;;;;;21.18;70.67;95291.44;5055873;28;1084;-70
2022/07/03 01:12:41;;;;;;;;;;;;;;;21.15;70.53;95293.03;5056691;28;951;-70
2022/07/03 01:15:10;;;;;;;;;;;;;;;21.12;70.74;95291.06;5056456;28;1910;-70
2022/07/03 01:17:39;;;;;;;;;;;;;;;21.09;70.71;95292.69;5055480;28;1567;-70
2022/07/03 01:20:06;;;;;;;;;;;;;;;21.09;70.84;95289.09;5056838;28;943;-71
2022/07/03 01:22:35;;;;;;;;;;;;;;;21.07;70.99;95289.53;5055751;28;1206;-71
2022/07/03 01:25:19;;;;;;;;;;;;;;;21.06;70.86;95292.72;5056503;28;967;-70
2022/07/03 01:27:56;;;;;;;;;;;;;;;21.06;70.82;95290.75;5056523;28;1101;-70
2022/07/03 01:30:23;;;;;;;;;;;;;;;21.05;70.98;95291.94;5055470;28;1336;-70
2022/07/03 01:32:52;;;;;;;;;;;;;;;21.03;70.83;95288.75;5056484;28;986;-70
2022/07/03 01:35:21;;;;;;;;;;;;;;;21.01;70.73;95288.38;5055578;28;1906;-70
2022/07/03 01:37:48;;;;;;;;;;;;;;;20.99;70.93;95287.19;5055558;28;1263;-70
2022/07/03 01:40:14;;;;;;;;;;;;;;;21.00;71.25;95298.00;5055908;28;1148;-69
2022/07/03 01:42:42;;;;;;;;;;;;;;;21.01;71.23;95296.78;5056244;28;1090;-70
2022/07/03 01:45:11;;;;;;;;;;;;;;;21.00;71.06;95298.00;5056039;28;1132;-70
2022/07/03 01:47:38;;;;;;;;;;;;;;;20.98;71.03;95300.41;5056265;28;1106;-70
2022/07/03 01:50:05;;;;;;;;;;;;;;;20.96;71.48;95294.44;5055923;28;1131;-70
2022/07/03 01:52:32;;;;;;;;;;;;;;;20.95;70.90;95292.03;5055715;28;1039;-70
2022/07/03 01:54:59;;;;;;;;;;;;;;;20.95;71.24;95300.44;5055727;28;1895;-70
2022/07/03 01:57:25;;;;;;;;;;;;;;;20.94;71.17;95293.25;5055985;28;1087;-70
2022/07/03 01:59:52;;;;;;;;;;;;;;;20.92;71.38;95300.06;5056441;28;939;-70
2022/07/03 02:02:21;;;;;;;;;;;;;;;20.93;71.39;95298.06;5056222;28;1032;-70
2022/07/03 02:04:51;;;;;;;;;;;;;;;20.92;71.40;95297.28;5056226;28;998;-70
2022/07/03 02:07:20;;;;;;;;;;;;;;;20.92;71.39;95300.06;5057381;28;986;-70
2022/07/03 02:09:48;;;;;;;;;;;;;;;20.94;71.26;95298.84;5060188;28;999;-69
2022/07/03 02:12:15;;;;;;;;;;;;;;;20.89;71.04;95288.91;5059140;28;1155;-69
2022/07/03 02:14:41;;;;;;;;;;;;;;;20.83;71.17;95296.16;5059714;28;1121;-69
2022/07/03 02:17:09;;;;;;;;;;;;;;;20.79;71.44;95289.78;5059758;28;1910;-69
2022/07/03 02:19:39;;;;;;;;;;;;;;;20.73;71.55;95300.63;5059249;28;1162;-69
2022/07/03 02:22:06;;;;;;;;;;;;;;;20.70;71.12;95297.84;5060112;28;959;-70
2022/07/03 02:24:32;;;;;;;;;;;;;;;20.65;70.98;95293.50;5059588;28;1220;-69
2022/07/03 02:27:01;;;;;;;;;;;;;;;20.58;71.38;95290.75;5059832;28;1049;-70
2022/07/03 02:29:31;;;;;;;;;;;;;;;20.55;71.81;95299.97;5058129;28;1100;-70
2022/07/03 02:31:58;;;;;;;;;;;;;;;20.52;71.56;95296.00;5059049;28;1225;-69
2022/07/03 02:34:25;;;;;;;;;;;;;;;20.52;71.85;95296.00;5059627;28;1077;-70
2022/07/03 02:36:53;;;;;;;;;;;;;;;20.48;71.67;95300.00;5058708;28;1969;-70
2022/07/03 02:39:21;;;;;;;;;;;;;;;20.42;71.59;95308.06;5059769;28;871;-70
2022/07/03 02:41:51;;;;;;;;;;;;;;;20.39;72.12;95298.47;5059559;28;1046;-70
2022/07/03 02:44:23;;;;;;;;;;;;;;;20.45;72.03;95310.03;5058937;28;1164;-70
2022/07/03 02:46:51;;;;;;;;;;;;;;;20.46;72.40;95303.22;5058889;28;1352;-70
2022/07/03 02:49:21;;;;;;;;;;;;;;;20.48;72.85;95312.03;5058436;28;1549;-70
2022/07/03 02:51:49;;;;;;;;;;;;;;;20.45;71.97;95307.25;5059379;28;706;-70
2022/07/03 02:54:17;;;;;;;;;;;;;;;20.42;71.96;95308.84;5058995;28;792;-70
2022/07/03 02:56:45;;;;;;;;;;;;;;;20.39;72.09;95308.88;5058851;28;1977;-70
2022/07/03 02:59:13;;;;;;;;;;;;;;;20.32;72.15;95308.91;5059263;28;955;-70
2022/07/03 03:01:46;;;;;;;;;;;;;;;20.28;71.99;95316.56;5059117;28;1057;-70
2022/07/03 03:04:13;;;;;;;;;;;;;;;20.24;72.44;95318.59;5058640;28;1606;-70
2022/07/03 03:06:39;;;;;;;;;;;;;;;20.22;72.39;95324.56;5058254;28;1285;-70
2022/07/03 03:09:06;;;;;;;;;;;;;;;20.22;72.46;95320.97;5057913;28;1325;-69
2022/07/03 03:11:37;;;;;;;;;;;;;;;20.20;72.34;95318.59;5058735;28;1093;-70
2022/07/03 03:14:04;;;;;;;;;;;;;;;20.20;72.28;95329.81;5058203;28;1145;-70
2022/07/03 03:16:31;;;;;;;;;;;;;;;20.22;72.56;95327.38;5058262;28;1922;-70
2022/07/03 03:18:57;;;;;;;;;;;;;;;20.23;72.67;95325.41;5057926;28;951;-70
2022/07/03 03:21:24;;;;;;;;;;;;;;;20.22;72.98;95330.19;5058493;28;1081;-69
2022/07/03 03:23:52;;;;;;;;;;;;;;;20.20;72.87;95330.59;5058619;28;1014;-71
2022/07/03 03:26:19;;;;;;;;;;;;;;;20.19;72.82;95333.81;5058989;28;1022;-71
2022/07/03 03:28:47;;;;;;;;;;;;;;;20.22;72.46;95326.59;5058699;28;999;-71
2022/07/03 03:31:13;;;;;;;;;;;;;;;20.22;72.70;95323.78;5058679;28;1010;-71
2022/07/03 03:33:41;;;;;;;;;;;;;;;20.22;72.74;95332.97;5058715;28;1042;-71
2022/07/03 03:36:08;;;;;;;;;;;;;;;20.23;72.11;95329.00;5058472;28;1942;-71
2022/07/03 03:38:34;;;;;;;;;;;;;;;20.23;72.49;95325.41;5058213;28;1029;-71
2022/07/03 03:41:01;;;;;;;;;;;;;;;20.22;72.28;95324.56;5057596;28;1222;-71
2022/07/03 03:43:28;;;;;;;;;;;;;;;20.24;72.04;95327.00;5058173;28;662;-71
2022/07/03 03:45:57;;;;;;;;;;;;;;;20.21;72.66;95328.59;5058355;28;982;-71
2022/07/03 03:48:24;;;;;;;;;;;;;;;20.23;73.33;95333.81;5057200;28;1739;-71
2022/07/03 03:50:50;;;;;;;;;;;;;;;20.24;73.69;95333.38;5058076;28;1188;-71
2022/07/03 03:53:17;;;;;;;;;;;;;;;20.27;73.66;95340.19;5057366;28;1253;-71
2022/07/03 03:55:53;;;;;;;;;;;;;;;20.25;73.40;95334.97;5057848;28;1902;-71
2022/07/03 03:58:19;;;;;;;;;;;;;;;20.28;74.04;95333.34;5057149;28;1115;-71
2022/07/03 04:00:46;;;;;;;;;;;;;;;20.29;73.60;95337.75;5057222;28;1194;-71
2022/07/03 04:03:14;;;;;;;;;;;;;;;20.32;73.63;95337.72;5057211;28;1218;-71
2022/07/03 04:05:41;;;;;;;;;;;;;;;20.35;72.80;95342.50;5057032;28;1611;-71
2022/07/03 04:08:08;;;;;;;;;;;;;;;20.36;72.85;95343.31;5057551;28;1194;-71
2022/07/03 04:10:35;;;;;;;;;;;;;;;20.39;73.12;95343.28;5056751;28;1071;-71
2022/07/03 04:13:01;;;;;;;;;;;;;;;20.41;72.81;95335.28;5056691;28;1154;-71
2022/07/03 04:15:28;;;;;;;;;;;;;;;20.43;73.07;95334.84;5057716;28;1002;-71
2022/07/03 04:17:54;;;;;;;;;;;;;;;20.44;72.83;95328.84;5057331;28;1914;-71
2022/07/03 04:20:22;;;;;;;;;;;;;;;20.47;72.93;95334.84;5057766;28;982;-71
2022/07/03 04:22:50;;;;;;;;;;;;;;;20.52;72.65;95331.66;5058015;28;747;-71
2022/07/03 04:25:16;;;;;;;;;;;;;;;20.51;72.24;95325.22;5057316;28;987;-71
2022/07/03 04:27:43;;;;;;;;;;;;;;;20.52;71.99;95334.44;5057493;28;1179;-70
2022/07/03 04:30:10;;;;;;;;;;;;;;;20.54;71.81;95323.59;5057105;28;1031;-71
2022/07/03 04:32:37;;;;;;;;;;;;;;;20.54;72.47;95324.41;5057716;28;1026;-71
2022/07/03 04:35:03;;;;;;;;;;;;;;;20.56;72.09;95326.81;5056483;28;1139;-70
2022/07/03 04:37:31;;;;;;;;;;;;;;;20.58;72.04;95329.97;5056203;28;1906;-71
2022/07/03 04:39:58;;;;;;;;;;;;;;;20.59;71.54;95334.41;5057353;28;1097;-69
2022/07/03 04:42:24;;;;;;;;;;;;;;;20.61;72.04;95331.97;5056447;28;1070;-69
2022/07/03 04:44:51;;;;;;;;;;;;;;;20.63;71.42;95330.34;5057364;28;1002;-69
2022/07/03 04:47:18;;;;;;;;;;;;;;;20.64;72.10;95337.53;5057207;28;959;-69
2022/07/03 04:49:45;;;;;;;;;;;;;;;20.65;72.21;95339.13;5056912;28;1204;-69
2022/07/03 04:52:11;;;;;;;;;;;;;;;20.66;71.95;95335.13;5056596;28;1241;-69
2022/07/03 04:54:39;;;;;;;;;;;;;;;20.70;72.06;95337.09;5056027;28;1184;-69
2022/07/03 04:57:06;;;;;;;;;;;;;;;20.72;71.85;95327.06;5056143;28;1983;-69
2022/07/03 04:59:32;;;;;;;;;;;;;;;20.75;71.78;95325.47;5089466;28;1102;-69
2022/07/03 05:01:59;;;;;;;;;;;;;;;20.77;72.07;95325.81;5057036;28;983;-69
2022/07/03 05:04:25;;;;;;;;;;;;;;;20.80;72.22;95331.41;5056582;28;1174;-69
2022/07/03 05:06:52;;;;;;;;;;;;;;;20.81;72.12;95332.22;5056885;28;966;-69
2022/07/03 05:09:19;;;;;;;;;;;;;;;20.82;71.53;95326.19;5056839;28;1041;-69
2022/07/03 05:11:47;;;;;;;;;;;;;;;20.82;71.76;95331.78;5056653;28;1097;-69
2022/07/03 05:14:14;;;;;;;;;;;;;;;20.83;71.82;95324.97;5056736;28;979;-69
2022/07/03 05:16:40;;;;;;;;;;;;;;;20.84;71.14;95323.78;5056347;28;1918;-69
2022/07/03 05:19:07;;;;;;;;;;;;;;;20.88;71.61;95330.16;5055821;28;1060;-69
2022/07/03 05:21:33;;;;;;;;;;;;;;;20.91;71.63;95328.50;5056344;28;886;-70
2022/07/03 05:24:00;;;;;;;;;;;;;;;20.96;71.42;95335.69;5056575;28;1030;-69
2022/07/03 05:26:27;;;;;;;;;;;;;;;20.97;71.41;95324.06;5056709;28;1023;-71
2022/07/03 05:28:55;;;;;;;;;;;;;;;20.99;70.80;95321.66;5056407;28;714;-71
2022/07/03 05:31:21;;;;;;;;;;;;;;;21.02;71.11;95331.22;5055773;28;1235;-71
2022/07/03 05:33:48;;;;;;;;;;;;;;;21.02;70.81;95323.59;5055574;28;1157;-71
2022/07/03 05:36:14;;;;;;;;;;;;;;;21.05;70.49;95328.38;5055776;28;1977;-71
2022/07/03 05:41:25;;;;;;;;;;;;;;;21.06;70.02;95329.16;5055819;28;902;-71
2022/07/03 05:43:51;;;;;;;;;;;;;;;21.08;70.52;95333.16;5056252;28;967;-71
2022/07/03 05:46:19;;;;;;;;;;;;;;;21.12;70.77;95339.53;5055642;28;1193;-72
2022/07/03 05:48:46;;;;;;;;;;;;;;;21.17;70.93;95338.31;5055669;28;1213;-71
2022/07/03 05:51:12;;;;;;;;;;;;;;;21.23;69.96;95339.44;5055743;28;1142;-71
2022/07/03 05:53:39;;;;;;;;;;;;;;;21.32;69.39;95338.97;5055366;28;1239;-72
2022/07/03 05:56:05;;;;;;;;;;;;;;;21.38;68.87;95332.50;5054997;28;1084;-72
2022/07/03 05:58:32;;;;;;;;;;;;;;;21.44;68.44;95330.03;5055327;28;1914;-71
2022/07/03 06:00:59;;;;;;;;;;;;;;;21.50;68.45;95334.00;5055441;28;1281;-71
2022/07/03 06:03:26;;;;;;;;;;;;;;;21.56;67.65;95334.31;5055935;28;1034;-71
2022/07/03 06:05:53;;;;;;;;;;;;;;;21.55;67.83;95332.72;5056160;28;990;-71
2022/07/03 06:08:19;;;;;;;;;;;;;;;21.55;68.12;95332.72;5055142;28;1163;-71
2022/07/03 06:10:46;;;;;;;;;;;;;;;21.55;67.99;95335.53;5055341;28;1236;-71
2022/07/03 06:13:13;;;;;;;;;;;;;;;21.60;67.81;95329.44;5055405;28;1215;-71
2022/07/03 06:15:40;;;;;;;;;;;;;;;21.63;67.63;95326.59;5055151;28;1240;-71
2022/07/03 06:18:07;;;;;;;;;;;;;;;21.69;67.20;95329.75;5054716;28;1983;-71
2022/07/03 06:20:34;;;;;;;;;;;;;;;21.75;66.89;95333.72;5054890;28;1131;-71
2022/07/03 06:23:01;;;;;;;;;;;;;;;21.77;66.96;95334.06;5055755;28;1051;-71
2022/07/03 06:25:28;;;;;;;;;;;;;;;21.81;66.88;95334.03;5055031;28;1287;-71
2022/07/03 06:27:54;;;;;;;;;;;;;;;21.79;67.00;95337.28;5055938;28;1026;-71
2022/07/03 06:30:21;;;;;;;;;;;;;;;21.79;67.12;95336.47;5055926;28;983;-71
2022/07/03 06:32:47;;;;;;;;;;;;;;;21.86;66.85;95342.00;5055187;28;1147;-71
2022/07/03 06:35:14;;;;;;;;;;;;;;;21.92;67.06;95342.31;5056092;28;723;-71
2022/07/03 06:37:42;;;;;;;;;;;;;;;21.97;66.82;95334.25;5055896;28;1918;-71
2022/07/03 06:40:09;;;;;;;;;;;;;;;22.00;67.02;95335.38;5056089;28;844;-70
2022/07/03 06:42:35;;;;;;;;;;;;;;;22.07;66.21;95338.09;5055219;28;1241;-71
2022/07/03 06:45:02;;;;;;;;;;;;;;;22.05;66.70;95326.50;5055047;28;1262;-71
2022/07/03 06:47:29;;;;;;;;;;;;;;;22.07;66.89;95332.50;5054634;28;1285;-71
2022/07/03 06:49:55;;;;;;;;;;;;;;;22.13;66.80;95325.19;5055923;28;713;-71
2022/07/03 06:52:22;;;;;;;;;;;;;;;22.18;66.69;95323.94;5055712;28;1025;-71
2022/07/03 06:54:49;;;;;;;;;;;;;;;22.19;66.46;95329.16;5057289;28;1015;-71
2022/07/03 06:57:16;;;;;;;;;;;;;;;22.27;66.13;95335.47;5058938;28;1967;-71
2022/07/03 06:59:43;;;;;;;;;;;;;;;22.31;65.87;95330.59;5058267;28;1374;-71
2022/07/03 07:02:09;;;;;;;;;;;;;;;22.36;66.21;95327.31;5059423;28;800;-71
2022/07/03 07:04:36;;;;;;;;;;;;;;;22.39;66.31;95334.91;5057885;28;1309;-71
2022/07/03 07:07:02;;;;;;;;;;;;;;;22.44;66.13;95325.19;5059177;28;1161;-73
2022/07/03 07:09:29;;;;;;;;;;;;;;;22.50;65.95;95326.31;5059106;28;982;-71
2022/07/03 07:11:57;;;;;;;;;;;;;;;22.54;65.44;95325.03;5058086;28;1461;-71
2022/07/03 07:14:23;;;;;;;;;;;;;;;22.53;65.37;95319.84;5058735;28;1023;-71
2022/07/03 07:16:50;;;;;;;;;;;;;;;22.54;65.70;95319.41;5057844;28;1985;-71
2022/07/03 07:19:16;;;;;;;;;;;;;;;22.57;65.64;95321.38;5058031;28;1207;-71
2022/07/03 07:21:43;;;;;;;;;;;;;;;22.59;64.75;95318.94;5057947;28;1512;-71
2022/07/03 07:24:10;;;;;;;;;;;;;;;22.59;64.31;95315.34;5058473;28;780;-70
2022/07/03 07:26:36;;;;;;;;;;;;;;;22.63;64.72;95309.66;5057988;28;1229;-71
2022/07/03 07:29:04;;;;;;;;;;;;;;;22.68;64.80;95323.22;5058765;28;975;-71
2022/07/03 07:31:31;;;;;;;;;;;;;;;22.72;64.81;95304.28;5058514;28;982;-71
2022/07/03 07:33:57;;;;;;;;;;;;;;;22.75;64.96;95315.47;5058141;28;1252;-71
2022/07/03 07:36:24;;;;;;;;;;;;;;;22.77;64.66;95309.44;5057650;28;1204;-71
2022/07/03 07:38:50;;;;;;;;;;;;;;;22.78;64.95;95314.63;5057599;28;1956;-71
2022/07/03 07:41:17;;;;;;;;;;;;;;;22.83;64.54;95311.31;5058471;28;1054;-71
2022/07/03 07:43:43;;;;;;;;;;;;;;;22.88;65.07;95312.06;5057656;28;1321;-71
2022/07/03 07:46:11;;;;;;;;;;;;;;;23.03;64.61;95313.44;5057165;28;1214;-71
2022/07/03 07:48:38;;;;;;;;;;;;;;;23.14;64.56;95305.63;5058290;28;1037;-71
2022/07/03 07:51:05;;;;;;;;;;;;;;;23.22;64.11;95301.44;5058264;28;975;-71
2022/07/03 07:53:31;;;;;;;;;;;;;;;23.26;63.98;95309.81;5057255;28;1071;-71
2022/07/03 07:55:58;;;;;;;;;;;;;;;23.33;63.86;95301.25;5058222;28;1038;-71
2022/07/03 07:58:24;;;;;;;;;;;;;;;23.41;63.69;95304.72;5057635;28;1910;-71
2022/07/03 08:06:35;;;;;;;;;;;;;;;23.62;63.20;95297.88;5035721;28;1368;-71
2022/07/03 08:09:01;;;;;;;;;;;;;;;23.61;62.76;95296.31;5019882;28;1152;-71
2022/07/03 08:11:28;;;;;;;;;;;;;;;23.60;62.72;95294.69;5045274;28;1186;-71
2022/07/03 08:13:55;;;;;;;;;;;;;;;23.65;62.50;95283.75;5057607;28;1080;-70
2022/07/03 08:16:21;;;;;;;;;;;;;;;23.74;61.86;95292.41;5057724;28;1362;-71
2022/07/03 08:18:49;;;;;;;;;;;;;;;23.80;62.25;95284.28;5057706;28;1967;-72
2022/07/03 08:21:16;;;;;;;;;;;;;;;23.83;61.20;95283.41;5057445;28;1031;-71
2022/07/03 08:23:42;;;;;;;;;;;;;;;23.81;59.91;95285.84;5056679;28;1254;-71
2022/07/03 08:26:09;;;;;;;;;;;;;;;23.80;59.15;95289.13;5056918;28;1275;-71
2022/07/03 08:28:35;;;;;;;;;;;;;;;23.79;59.26;95288.31;5057767;28;1018;-71
2022/07/03 08:31:02;;;;;;;;;;;;;;;23.76;58.65;95292.78;5057484;28;1006;-71
2022/07/03 08:33:28;;;;;;;;;;;;;;;23.77;59.08;95297.19;5057438;28;971;-71
2022/07/03 08:35:56;;;;;;;;;;;;;;;23.82;60.23;95287.47;5056183;28;1294;-72
2022/07/03 08:38:24;;;;;;;;;;;;;;;23.88;61.08;95285.69;5057605;28;1969;-70
2022/07/03 08:40:50;;;;;;;;;;;;;;;24.01;61.77;95283.03;5057452;28;995;-71
2022/07/03 08:43:17;;;;;;;;;;;;;;;24.16;59.66;95289.94;5056600;28;1163;-72
2022/07/03 08:45:43;;;;;;;;;;;;;;;24.29;59.81;95286.44;5057235;28;947;-70
2022/07/03 08:48:10;;;;;;;;;;;;;;;24.37;59.47;95288.66;5057426;28;978;-72
2022/07/03 08:50:36;;;;;;;;;;;;;;;24.41;57.78;95285.81;5056731;28;1143;-73
2022/07/03 08:53:04;;;;;;;;;;;;;;;24.46;59.86;95285.25;5057161;28;1015;-71
2022/07/03 08:55:31;;;;;;;;;;;;;;;24.56;59.01;95272.16;5057389;28;955;-71
2022/07/03 08:57:57;;;;;;;;;;;;;;;24.60;58.74;95273.66;5056665;28;1906;-72
2022/07/03 09:00:24;;;;;;;;;;;;;;;24.56;58.73;95274.97;5057410;28;1416;-71
2022/07/03 09:02:51;;;;;;;;;;;;;;;24.67;59.06;95276.31;5056351;28;1076;-70
2022/07/03 09:05:17;;;;;;;;;;;;;;;24.77;57.69;95280.09;5056239;28;1135;-71
2022/07/03 09:07:44;;;;;;;;;;;;;;;24.83;57.91;95275.50;5055621;28;1191;-71
2022/07/03 09:10:13;;;;;;;;;;;;;;;24.86;57.82;95274.63;5056297;28;1227;-72
2022/07/03 09:12:39;;;;;;;;;;;;;;;24.90;58.10;95274.53;5055782;28;1222;-71
2022/07/03 09:15:07;;;;;;;;;;;;;;;24.96;56.90;95264.31;5056173;28;1362;-72
2022/07/03 09:17:33;;;;;;;;;;;;;;;25.11;55.52;95270.41;5054479;28;1909;-73
2022/07/03 09:20:03;;;;;;;;;;;;;;;25.17;55.01;95258.16;5056420;28;1191;-71
2022/07/03 09:22:30;;;;;;;;;;;;;;;25.20;55.91;95253.63;5055918;28;1184;-73
2022/07/03 09:25:04;;;;;;;;;;;;;;;25.20;55.04;95259.25;5056342;28;1118;-72
2022/07/03 09:27:32;;;;;;;;;;;;;;;25.26;54.31;95259.53;5055945;28;1324;-72
2022/07/03 09:29:59;;;;;;;;;;;;;;;25.39;50.98;95258.34;5056809;28;1034;-71
2022/07/03 09:32:26;;;;;;;;;;;;;;;25.41;53.21;95255.88;5055897;28;1075;-73
2022/07/03 09:35:07;;;;;;;;;;;;;;;25.42;53.19;95251.03;5057445;28;932;-66
2022/07/03 09:37:34;;;;;;;;;;;;;;;25.47;52.85;95256.13;5088969;28;1915;-72
2022/07/03 09:40:02;;;;;;;;;;;;;;;25.62;51.81;95248.03;5056482;28;956;-75
2022/07/03 09:42:29;;;;;;;;;;;;;;;25.76;50.83;95238.38;5056162;28;1027;-74
2022/07/03 09:44:57;;;;;;;;;;;;;;;25.79;52.21;95245.97;5055460;28;1192;-72
2022/07/03 09:47:24;;;;;;;;;;;;;;;25.87;51.07;95238.88;5055627;28;1273;-70
2022/07/03 09:49:52;;;;;;;;;;;;;;;25.95;50.97;95242.28;5056211;28;1019;-71
2022/07/03 09:52:43;;;;;;;;;;;;;;;26.06;51.21;95242.75;5055885;28;1292;-73
2022/07/03 09:55:13;;;;;;;;;;;;;;;26.12;51.37;95241.75;5073731;28;1258;-73
2022/07/03 09:57:40;;;;;;;;;;;;;;;26.21;49.39;95245.94;5056369;28;1898;-73
2022/07/03 10:00:25;;;;;;;;;;;;;;;26.31;49.01;95242.75;5056099;28;1094;-73
2022/07/03 10:03:03;;;;;;;;;;;;;;;26.35;50.37;95239.81;5054658;28;1261;-73
2022/07/03 10:05:30;;;;;;;;;;;;;;;26.39;49.56;95234.84;5056311;28;935;-73
2022/07/03 10:07:57;;;;;;;;;;;;;;;26.41;48.93;95230.34;5055429;28;1232;-73
2022/07/03 10:10:24;;;;;;;;;;;;;;;26.51;48.41;95224.81;5055228;28;1636;-73
2022/07/03 10:12:51;;;;;;;;;;;;;;;26.60;48.92;95231.38;5056095;28;973;-73
2022/07/03 10:15:18;;;;;;;;;;;;;;;26.69;49.86;95215.72;5055420;28;1260;-74
2022/07/03 10:17:45;;;;;;;;;;;;;;;26.78;49.27;95230.00;5054641;28;1910;-73
2022/07/03 10:20:14;;;;;;;;;;;;;;;26.82;49.76;95231.44;5056339;28;988;-73
2022/07/03 10:22:42;;;;;;;;;;;;;;;26.86;49.88;95217.19;5056104;28;945;-73
2022/07/03 10:25:09;;;;;;;;;;;;;;;26.87;48.68;95222.41;5055960;28;1034;-73
2022/07/03 10:27:35;;;;;;;;;;;;;;;26.88;48.78;95218.31;5054872;28;1696;-73
2022/07/03 10:30:02;;;;;;;;;;;;;;;26.91;50.04;95216.63;5059571;28;1266;-74
2022/07/03 10:32:28;;;;;;;;;;;;;;;26.97;49.41;95208.31;5059993;28;1019;-73
2022/07/03 10:34:55;;;;;;;;;;;;;;;26.93;47.80;95210.50;5059822;28;1019;-74
2022/07/03 10:37:23;;;;;;;;;;;;;;;26.84;48.20;95199.88;5059490;28;1073;-74
2022/07/03 10:39:50;;;;;;;;;;;;;;;26.82;48.69;95205.97;5058474;28;1914;-73
2022/07/03 10:45:08;;;;;;;;;;;;;;;26.97;46.70;95197.78;5092182;28;1185;-74
2022/07/03 10:47:39;;;;;;;;;;;;;;;27.09;46.40;95202.63;5058275;28;1172;-73
2022/07/03 10:50:08;;;;;;;;;;;;;;;27.17;47.29;95202.41;5058580;28;1186;-74
2022/07/03 10:52:35;;;;;;;;;;;;;;;27.33;43.41;95190.91;5058349;28;1260;-74
2022/07/03 10:55:03;;;;;;;;;;;;;;;27.49;41.37;95187.91;5058204;28;1366;-74
2022/07/03 10:57:29;;;;;;;;;;;;;;;27.58;41.16;95181.50;5059729;28;962;-74
2022/07/03 11:00:16;;;;;;;;;;;;;;;27.60;41.13;95179.00;5058985;28;1906;-74
2022/07/03 11:02:44;;;;;;;;;;;;;;;27.67;40.46;95181.56;5059268;28;1184;-74
2022/07/03 11:05:17;;;;;;;;;;;;;;;27.78;40.87;95178.34;5059034;28;1043;-74
2022/07/03 11:08:04;;;;;;;;;;;;;;;27.80;39.28;95170.94;5059115;28;1002;-74
2022/07/03 11:10:34;;;;;;;;;;;;;;;27.79;38.13;95166.53;5058686;28;1262;-74
2022/07/03 11:13:01;;;;;;;;;;;;;;;27.91;39.02;95176.22;5058527;28;1064;-73
2022/07/03 11:15:28;;;;;;;;;;;;;;;27.98;39.85;95172.31;5058287;28;1251;-73
2022/07/03 11:18:11;;;;;;;;;;;;;;;28.00;39.77;95169.81;5058540;28;1914;-74
2022/07/03 11:20:38;;;;;;;;;;;;;;;28.03;37.79;95171.69;5058048;28;1044;-74
2022/07/03 11:23:08;;;;;;;;;;;;;;;28.10;38.85;95162.91;5058819;28;1018;-74
2022/07/03 11:25:39;;;;;;;;;;;;;;;28.16;38.30;95157.44;5058865;28;1026;-73
2022/07/03 11:28:05;;;;;;;;;;;;;;;28.20;40.98;95156.03;5059085;28;1241;-73
2022/07/03 11:30:32;;;;;;;;;;;;;;;28.20;39.48;95158.88;5058529;28;1074;-73
2022/07/03 11:33:00;;;;;;;;;;;;;;;28.28;40.04;95162.19;5058867;28;835;-73
2022/07/03 11:35:46;;;;;;;;;;;;;;;28.37;39.41;95150.13;5058745;28;971;-73
2022/07/03 11:38:17;;;;;;;;;;;;;;;28.37;40.61;95150.13;5058561;28;1905;-73
2022/07/03 11:40:44;;;;;;;;;;;;;;;28.31;41.38;95152.75;5056677;28;1242;-74
2022/07/03 11:43:11;;;;;;;;;;;;;;;28.20;40.98;95147.53;5058528;28;804;-73
2022/07/03 11:45:38;;;;;;;;;;;;;;;28.16;40.36;95146.88;5058153;28;1023;-74
2022/07/03 11:48:06;;;;;;;;;;;;;;;28.21;39.56;95143.41;5058462;28;943;-74
2022/07/03 11:50:39;;;;;;;;;;;;;;;28.29;39.23;95138.28;5057413;28;1134;-74
2022/07/03 11:53:23;;;;;;;;;;;;;;;28.36;40.02;95137.97;5058505;28;999;-74
2022/07/03 11:55:51;;;;;;;;;;;;;;;28.36;40.30;95137.97;5057959;28;1040;-74
2022/07/03 11:58:17;;;;;;;;;;;;;;;28.30;39.26;95132.13;5058033;28;1898;-74
2022/07/03 12:00:44;;;;;;;;;;;;;;;28.34;38.79;95134.03;5057485;28;1073;-75
2022/07/03 12:03:15;;;;;;;;;;;;;;;28.32;40.74;95128.81;5057225;28;1143;-74
2022/07/03 12:05:50;;;;;;;;;;;;;;;28.35;38.90;95124.25;5056846;28;1285;-74
2022/07/03 12:08:17;;;;;;;;;;;;;;;28.50;39.01;95116.75;5058031;28;986;-73
2022/07/03 12:10:45;;;;;;;;;;;;;;;28.54;39.74;95120.22;5057575;28;1319;-74
2022/07/03 12:13:21;;;;;;;;;;;;;;;28.63;39.80;95117.41;5057638;28;1015;-74
2022/07/03 12:15:47;;;;;;;;;;;;;;;28.73;38.08;95115.41;5057624;28;934;-74
2022/07/03 12:18:14;;;;;;;;;;;;;;;28.74;40.10;95112.06;5056306;28;1981;-73
2022/07/03 12:20:40;;;;;;;;;;;;;;;28.82;39.17;95106.09;5057136;28;1064;-73
2022/07/03 12:23:07;;;;;;;;;;;;;;;28.86;40.23;95106.72;5057876;28;754;-74
2022/07/03 12:25:38;;;;;;;;;;;;;;;28.83;39.48;95099.94;5056921;28;1182;-74
2022/07/03 12:28:06;;;;;;;;;;;;;;;28.80;39.74;95106.56;5057736;28;906;-74
2022/07/03 12:30:33;;;;;;;;;;;;;;;28.82;40.16;95103.25;5057827;28;1034;-74
2022/07/03 12:32:59;;;;;;;;;;;;;;;28.78;40.66;95103.41;5057434;28;1038;-74
2022/07/03 12:35:26;;;;;;;;;;;;;;;28.76;39.98;95100.28;5056790;28;1190;-74
2022/07/03 12:37:53;;;;;;;;;;;;;;;28.76;39.63;95103.09;5057355;28;1285;-74
2022/07/03 12:40:19;;;;;;;;;;;;;;;28.70;39.86;95100.09;5057268;28;1909;-74
2022/07/03 12:42:46;;;;;;;;;;;;;;;28.65;39.98;95094.25;5057499;28;990;-74
2022/07/03 12:45:14;;;;;;;;;;;;;;;28.57;40.98;95093.75;5056443;28;1072;-74
2022/07/03 12:47:41;;;;;;;;;;;;;;;28.59;41.83;95096.13;5056384;28;1252;-74
2022/07/03 12:50:08;;;;;;;;;;;;;;;28.70;41.23;95099.31;5056552;28;1260;-74
2022/07/03 12:52:35;;;;;;;;;;;;;;;28.73;40.93;95098.38;5056297;28;1132;-74
2022/07/03 12:55:02;;;;;;;;;;;;;;;28.64;41.26;95093.47;5056873;28;1027;-74
2022/07/03 13:00:16;;;;;;;;;;;;;;;28.74;40.73;95099.94;5090245;28;1988;-74
2022/07/03 13:02:43;;;;;;;;;;;;;;;28.69;40.73;95094.91;5056193;28;1305;-74
2022/07/03 13:05:17;;;;;;;;;;;;;;;28.62;41.38;95095.22;5056265;28;1061;-74
2022/07/03 13:07:43;;;;;;;;;;;;;;;28.65;41.22;95088.56;5055928;28;1061;-74
2022/07/03 13:10:10;;;;;;;;;;;;;;;28.54;40.88;95086.19;5055700;28;1142;-74
2022/07/03 13:12:45;;;;;;;;;;;;;;;28.54;40.93;95078.47;5056617;28;1195;-74
2022/07/03 13:15:12;;;;;;;;;;;;;;;28.53;42.75;95087.44;5055903;28;1177;-74
2022/07/03 13:17:56;;;;;;;;;;;;;;;28.60;40.32;95083.53;5055456;28;1286;-74